Aroma, Indiana
Current Conditions -  °F | °C
As of 5:55 PM on Tuesday 25 Nov 2014 (Local Time) from KTYQ Reporting Station
Overcast Overcast  
Wind Chill: -6°   Ceiling: 1400
Heat Index: -3°   Visibility: 10mi
Dew Point: -6°   Wind: 6mph
Humidity: 77%   Direction: 270°W
Pressure: 30.16"   Gusts: NA
Location:  40.1832°N, 85.9359°W
Report Text: KTYQ 252255Z AUTO 27005KT 10SM OVC014 M02/M06 A3016 RMK AO2 T10251060
Loading
Personal Weather Stations






























Interactive Weather Map New forecast layout! Learn more

10-Day Weather Forecast

Advertisements
Track Severe Weather on mobile